• Join FlightAware (Why Join?)
  • Login
  • US Flag 
04:48AM EDT


 

Airport Tracker/Info


-or-


 

Live Flight TrackerFlight Track Log ✈ FLG3579 ✈ 03-Nov-2013 ✈ KLGA - KIAD

Flight Track Log - Related Links

Times and Time Zones

All times are in EST time to prevent confusion due to time zone crossing. See the FLG3579 flight status page for this flight to view local times or setup timezone preferences in your user account.

Time Position Orientation Groundspeed Altitude Reporting Facility
EST Latitude Longitude Course Direction KTS MPH feet Rate Location/Type
09:59AM 40.8000 -73.8667 346° North 149 171 1,600  Level New York TRACON
10:00AM 40.8500 -73.8833 346° North 202 232 4,000 3,120 Climbing New York TRACON
10:01AM 40.8500 -73.9833 270° West 260 299 7,900 3,540 Climbing New York TRACON
10:02AM 40.8333 -74.0667 255° West 269 310 11,100 2,520 Climbing New York TRACON
10:03AM 40.8167 -74.1833 259° West 312 359 13,000 1,980 Climbing New York TRACON
10:04AM 40.8000 -74.3000 259° West 346 398 15,100 1,500 Climbing New York TRACON
10:05AM 40.7833 -74.4167 259° West 348 400 16,000 420 Climbing New York TRACON
10:06AM 40.7667 -74.5500 261° West 334 384 16,000  Level New York TRACON
10:07AM 40.7447 -74.6797 257° West 325 374 16,000  Level New York Center
10:08AM 40.7308 -74.7883 260° West 330 380 16,000  Level New York Center
10:09AM 40.7097 -74.9158 258° West 330 380 16,000 720 Level New York Center
10:10AM 40.6908 -75.0350 258° West 336 387 17,500 1,620 Climbing New York Center
10:11AM 40.6511 -75.1503 246° West 336 387 19,300 1,200 Climbing New York Center
10:12AM 40.5989 -75.2644 239° Southwest 348 400 20,000 300 Climbing New York Center
10:13AM 40.5467 -75.3811 240° Southwest 362 417 20,000  Level New York Center
10:14AM 40.4919 -75.5003 239° Southwest 377 434 20,000  Level New York Center
10:15AM 40.4369 -75.6194 239° Southwest 377 434 20,000  Level New York Center
10:16AM 40.3800 -75.7381 238° Southwest 377 434 20,000  Level New York Center
10:17AM 40.3269 -75.8539 239° Southwest 377 434 20,000  Level New York Center
10:18AM 40.2789 -75.9539 238° Southwest 384 442 20,000 -180 Level New York Center
10:19AM 40.2169 -76.0825 238° Southwest 390 449 19,700 -780 Descending New York Center
10:20AM 40.1569 -76.2108 239° Southwest 390 449 18,500 -1,020 Descending New York Center
10:22AM 40.0500 -76.4667 241° Southwest 377 434 16,600 -900 Descending Potomac TRACON
10:23AM 40.0000 -76.5500 232° Southwest 374 430 15,800 -900 Descending Potomac TRACON
10:24AM 39.9500 -76.6667 241° Southwest 369 425 15,000 -480 Descending Potomac TRACON
10:25AM 39.9000 -76.7667 237° Southwest 357 411 14,900  Descending Potomac TRACON
10:26AM 39.8500 -76.8833 241° Southwest 353 406 15,000  Climbing Potomac TRACON
10:27AM 39.8000 -76.9833 237° Southwest 353 406 15,000 -120 Level Potomac TRACON
10:28AM 39.7500 -77.1000 241° Southwest 349 402 14,800 -1,260 Descending Potomac TRACON
10:29AM 39.7000 -77.1833 232° Southwest 333 383 12,700 -2,160 Descending Potomac TRACON
10:30AM 39.6333 -77.2500 218° Southwest 308 354 10,800 -1,740 Descending Potomac TRACON
10:31AM 39.5500 -77.2833 197° South 293 337 9,300 -1,380 Descending Potomac TRACON
10:32AM 39.4833 -77.3333 210° Southwest 289 333 8,100 -1,200 Descending Potomac TRACON
10:33AM 39.4167 -77.3667 201° Southwest 289 333 7,100 -1,140 Descending Potomac TRACON
10:34AM 39.3333 -77.3667 180° South 289 333 6,000 -1,080 Descending Potomac TRACON
10:35AM 39.2500 -77.3667 180° South 284 327 5,000 -1,080 Descending Potomac TRACON
10:36AM 39.1833 -77.3500 169° South 282 325 4,000 -660 Descending Potomac TRACON
10:37AM 39.1000 -77.3500 180° South 284 327 3,800 -420 Descending Potomac TRACON
10:38AM 39.0333 -77.3500 180° South 267 307 3,300 -480 Descending Potomac TRACON
10:39AM 38.9667 -77.3500 180° South 273 314 3,000 -120 Descending Potomac TRACON
10:40AM 38.8833 -77.3500 180° South 266 306 3,100 -60 Climbing Potomac TRACON
10:41AM 38.8167 -77.3667 191° South 229 264 2,900 -540 Descending Potomac TRACON
10:42AM 38.8333 -77.4167 293° West 174 200 2,100 -600 Descending Potomac TRACON
10:42AM 38.8667 -77.4333 339° North 147 169 1,800 -600 Descending Potomac TRACON
10:44AM 38.9000 -77.4333 360° North 125 144 900 -840 Descending Potomac TRACON
10:46AM 38.9333 -77.4500 349° North  Level FlightAware Approximate